sensor_id;sensor_type;location;lat;lon;timestamp;pressure;altitude;pressure_sealevel;temperature;humidity
61205;BME280;47068;55.780;37.520;2023-04-06T00:00:33;100618.44;;;6.73;65.58
61205;BME280;47068;55.780;37.520;2023-04-06T00:02:59;100627.50;;;6.82;65.27
61205;BME280;47068;55.780;37.520;2023-04-06T00:05:24;100620.53;;;6.92;65.95
61205;BME280;47068;55.780;37.520;2023-04-06T00:07:50;100615.50;;;7.00;65.64
61205;BME280;47068;55.780;37.520;2023-04-06T00:10:16;100616.94;;;7.15;65.03
61205;BME280;47068;55.780;37.520;2023-04-06T00:12:41;100623.94;;;7.27;64.60
61205;BME280;47068;55.780;37.520;2023-04-06T00:15:07;100596.03;;;7.12;64.84
61205;BME280;47068;55.780;37.520;2023-04-06T00:17:33;100597.22;;;7.19;64.54
61205;BME280;47068;55.780;37.520;2023-04-06T00:19:59;100560.66;;;6.91;64.78
61205;BME280;47068;55.780;37.520;2023-04-06T00:22:24;100601.44;;;7.22;64.55
61205;BME280;47068;55.780;37.520;2023-04-06T00:24:50;100626.94;;;7.34;64.20
61205;BME280;47068;55.780;37.520;2023-04-06T00:27:15;100628.03;;;7.31;63.82
61205;BME280;47068;55.780;37.520;2023-04-06T00:29:41;100612.28;;;7.19;64.35
61205;BME280;47068;55.780;37.520;2023-04-06T00:32:06;100624.28;;;7.23;64.71
61205;BME280;47068;55.780;37.520;2023-04-06T00:34:32;100627.06;;;7.21;64.31
61205;BME280;47068;55.780;37.520;2023-04-06T00:36:57;100620.34;;;7.17;64.86
61205;BME280;47068;55.780;37.520;2023-04-06T00:39:23;100625.63;;;7.17;64.92
61205;BME280;47068;55.780;37.520;2023-04-06T00:41:52;100618.75;;;7.15;64.90
61205;BME280;47068;55.780;37.520;2023-04-06T00:44:18;100626.31;;;7.19;64.27
61205;BME280;47068;55.780;37.520;2023-04-06T00:46:44;100623.94;;;7.16;64.10
61205;BME280;47068;55.780;37.520;2023-04-06T00:49:10;100613.34;;;7.05;64.10
61205;BME280;47068;55.780;37.520;2023-04-06T00:51:35;100596.50;;;6.84;64.78
61205;BME280;47068;55.780;37.520;2023-04-06T00:54:01;100616.91;;;6.93;64.84
61205;BME280;47068;55.780;37.520;2023-04-06T00:56:26;100633.63;;;6.93;65.02
61205;BME280;47068;55.780;37.520;2023-04-06T00:58:52;100612.84;;;6.78;65.37
61205;BME280;47068;55.780;37.520;2023-04-06T01:01:18;100624.59;;;6.85;65.54
61205;BME280;47068;55.780;37.520;2023-04-06T01:03:44;100600.31;;;6.68;65.51
61205;BME280;47068;55.780;37.520;2023-04-06T01:06:12;100616.66;;;6.85;65.96
61205;BME280;47068;55.780;37.520;2023-04-06T01:08:38;100619.47;;;6.94;65.90
61205;BME280;47068;55.780;37.520;2023-04-06T01:11:03;100621.03;;;6.97;65.28
61205;BME280;47068;55.780;37.520;2023-04-06T01:13:29;100627.03;;;6.99;65.04
61205;BME280;47068;55.780;37.520;2023-04-06T01:15:54;100615.59;;;6.98;65.56
61205;BME280;47068;55.780;37.520;2023-04-06T01:18:28;100614.75;;;6.76;65.56
61205;BME280;47068;55.780;37.520;2023-04-06T01:20:54;100576.72;;;6.54;65.73
61205;BME280;47068;55.780;37.520;2023-04-06T01:23:19;100617.03;;;6.80;65.89
61205;BME280;47068;55.780;37.520;2023-04-06T01:25:45;100617.75;;;6.82;65.90
61205;BME280;47068;55.780;37.520;2023-04-06T01:28:10;100610.66;;;6.83;65.51
61205;BME280;47068;55.780;37.520;2023-04-06T01:30:36;100614.00;;;6.73;65.41
61205;BME280;47068;55.780;37.520;2023-04-06T01:33:02;100602.00;;;6.69;66.18
61205;BME280;47068;55.780;37.520;2023-04-06T01:35:28;100610.16;;;6.66;66.08
61205;BME280;47068;55.780;37.520;2023-04-06T01:37:54;100613.75;;;6.65;65.92
61205;BME280;47068;55.780;37.520;2023-04-06T01:40:19;100600.03;;;6.60;66.05
61205;BME280;47068;55.780;37.520;2023-04-06T01:42:46;100620.16;;;6.74;65.39
61205;BME280;47068;55.780;37.520;2023-04-06T01:45:11;100620.88;;;6.76;65.76
61205;BME280;47068;55.780;37.520;2023-04-06T01:47:37;100617.13;;;6.79;65.43
61205;BME280;47068;55.780;37.520;2023-04-06T01:50:02;100624.59;;;6.73;65.41
61205;BME280;47068;55.780;37.520;2023-04-06T01:52:31;100615.31;;;6.68;65.45
61205;BME280;47068;55.780;37.520;2023-04-06T01:54:56;100610.13;;;6.55;65.92
61205;BME280;47068;55.780;37.520;2023-04-06T01:57:22;100618.16;;;6.54;66.31
61205;BME280;47068;55.780;37.520;2023-04-06T01:59:47;100614.66;;;6.42;66.00
61205;BME280;47068;55.780;37.520;2023-04-06T02:02:13;100619.38;;;6.26;66.86
61205;BME280;47068;55.780;37.520;2023-04-06T02:04:39;100611.81;;;6.21;66.98
61205;BME280;47068;55.780;37.520;2023-04-06T02:07:04;100617.34;;;6.29;67.62
61205;BME280;47068;55.780;37.520;2023-04-06T02:09:30;100595.59;;;6.02;67.28
61205;BME280;47068;55.780;37.520;2023-04-06T02:11:55;100617.69;;;6.25;67.44
61205;BME280;47068;55.780;37.520;2023-04-06T02:14:21;100581.38;;;6.16;66.98
61205;BME280;47068;55.780;37.520;2023-04-06T02:16:49;100630.34;;;6.09;66.78
61205;BME280;47068;55.780;37.520;2023-04-06T02:19:14;100622.16;;;6.01;67.28
61205;BME280;47068;55.780;37.520;2023-04-06T02:21:40;100615.84;;;5.90;67.58
61205;BME280;47068;55.780;37.520;2023-04-06T02:24:05;100626.06;;;5.95;67.55
61205;BME280;47068;55.780;37.520;2023-04-06T02:26:31;100631.66;;;6.03;67.03
61205;BME280;47068;55.780;37.520;2023-04-06T02:28:57;100617.34;;;5.95;67.63
61205;BME280;47068;55.780;37.520;2023-04-06T02:31:22;100636.88;;;5.92;67.71
61205;BME280;47068;55.780;37.520;2023-04-06T02:33:47;100615.88;;;5.78;67.96
61205;BME280;47068;55.780;37.520;2023-04-06T02:36:13;100599.13;;;5.66;68.20
61205;BME280;47068;55.780;37.520;2023-04-06T02:38:38;100626.34;;;5.79;67.89
61205;BME280;47068;55.780;37.520;2023-04-06T02:41:04;100632.25;;;5.70;68.59
61205;BME280;47068;55.780;37.520;2023-04-06T02:43:30;100630.13;;;5.75;68.14
61205;BME280;47068;55.780;37.520;2023-04-06T02:45:55;100608.75;;;5.54;68.43
61205;BME280;47068;55.780;37.520;2023-04-06T02:48:21;100646.72;;;5.77;67.92
61205;BME280;47068;55.780;37.520;2023-04-06T02:50:46;100642.31;;;5.65;68.25
61205;BME280;47068;55.780;37.520;2023-04-06T02:53:12;100642.94;;;5.69;68.25
61205;BME280;47068;55.780;37.520;2023-04-06T02:55:37;100652.66;;;5.68;68.15
61205;BME280;47068;55.780;37.520;2023-04-06T02:58:03;100587.59;;;5.31;68.06
61205;BME280;47068;55.780;37.520;2023-04-06T03:00:28;100663.63;;;5.62;68.23
61205;BME280;47068;55.780;37.520;2023-04-06T03:02:54;100659.31;;;5.61;68.40
61205;BME280;47068;55.780;37.520;2023-04-06T03:05:19;100626.94;;;5.34;68.68
61205;BME280;47068;55.780;37.520;2023-04-06T03:07:45;100660.94;;;5.51;68.60
61205;BME280;47068;55.780;37.520;2023-04-06T03:10:10;100661.34;;;5.58;68.74
61205;BME280;47068;55.780;37.520;2023-04-06T03:12:36;100668.72;;;5.65;68.06
61205;BME280;47068;55.780;37.520;2023-04-06T03:15:02;100655.72;;;5.62;68.58
61205;BME280;47068;55.780;37.520;2023-04-06T03:17:27;100666.78;;;5.92;68.25
61205;BME280;47068;55.780;37.520;2023-04-06T03:19:53;100672.84;;;6.06;67.54
61205;BME280;47068;55.780;37.520;2023-04-06T03:22:20;100667.63;;;5.93;66.90
61205;BME280;47068;55.780;37.520;2023-04-06T03:24:46;100648.63;;;5.75;67.03
61205;BME280;47068;55.780;37.520;2023-04-06T03:27:11;100642.53;;;5.62;67.54
61205;BME280;47068;55.780;37.520;2023-04-06T03:29:37;100681.34;;;5.98;67.29
61205;BME280;47068;55.780;37.520;2023-04-06T03:32:02;100684.91;;;5.97;67.04
61205;BME280;47068;55.780;37.520;2023-04-06T03:34:28;100683.63;;;6.03;66.79
61205;BME280;47068;55.780;37.520;2023-04-06T03:36:53;100694.00;;;6.06;67.02
61205;BME280;47068;55.780;37.520;2023-04-06T03:39:19;100686.47;;;6.12;66.62
61205;BME280;47068;55.780;37.520;2023-04-06T03:41:44;100697.94;;;6.24;65.90
61205;BME280;47068;55.780;37.520;2023-04-06T03:44:10;100688.22;;;6.48;65.26
61205;BME280;47068;55.780;37.520;2023-04-06T03:46:35;100690.63;;;6.51;64.64
61205;BME280;47068;55.780;37.520;2023-04-06T03:49:01;100673.81;;;6.52;65.14
61205;BME280;47068;55.780;37.520;2023-04-06T03:51:27;100684.16;;;7.01;64.24
61205;BME280;47068;55.780;37.520;2023-04-06T03:53:53;100678.31;;;7.42;63.04
61205;BME280;47068;55.780;37.520;2023-04-06T03:56:18;100693.50;;;7.74;60.09
61205;BME280;47068;55.780;37.520;2023-04-06T03:58:44;100702.41;;;7.95;61.19
61205;BME280;47068;55.780;37.520;2023-04-06T04:01:16;100696.59;;;8.01;59.44
61205;BME280;47068;55.780;37.520;2023-04-06T04:03:42;100700.41;;;8.19;59.47
61205;BME280;47068;55.780;37.520;2023-04-06T04:06:08;100676.44;;;8.21;58.84
61205;BME280;47068;55.780;37.520;2023-04-06T04:08:33;100675.91;;;7.84;59.14
61205;BME280;47068;55.780;37.520;2023-04-06T04:11:00;100704.22;;;7.72;59.07
61205;BME280;47068;55.780;37.520;2023-04-06T04:13:26;100708.78;;;7.48;60.63
61205;BME280;47068;55.780;37.520;2023-04-06T04:15:51;100708.03;;;7.24;61.18
61205;BME280;47068;55.780;37.520;2023-04-06T04:18:17;100714.53;;;6.85;62.30
61205;BME280;47068;55.780;37.520;2023-04-06T04:20:43;100712.59;;;6.52;63.80
61205;BME280;47068;55.780;37.520;2023-04-06T04:23:09;100705.59;;;6.63;63.18
61205;BME280;47068;55.780;37.520;2023-04-06T04:25:35;100690.75;;;6.50;63.63
61205;BME280;47068;55.780;37.520;2023-04-06T04:28:00;100702.03;;;6.76;62.45
61205;BME280;47068;55.780;37.520;2023-04-06T04:30:26;100710.16;;;6.72;62.66
61205;BME280;47068;55.780;37.520;2023-04-06T04:32:51;100701.28;;;6.73;63.17
61205;BME280;47068;55.780;37.520;2023-04-06T04:35:17;100720.03;;;6.70;63.16
61205;BME280;47068;55.780;37.520;2023-04-06T04:37:43;100722.03;;;6.56;63.58
61205;BME280;47068;55.780;37.520;2023-04-06T04:40:09;100700.47;;;6.49;64.31
61205;BME280;47068;55.780;37.520;2023-04-06T04:42:35;100702.03;;;6.76;63.01
61205;BME280;47068;55.780;37.520;2023-04-06T04:45:00;100713.53;;;6.63;62.68
61205;BME280;47068;55.780;37.520;2023-04-06T04:47:26;100730.34;;;6.62;63.10
61205;BME280;47068;55.780;37.520;2023-04-06T04:49:51;100721.09;;;6.68;63.42
61205;BME280;47068;55.780;37.520;2023-04-06T04:52:17;100720.25;;;6.67;63.11
61205;BME280;47068;55.780;37.520;2023-04-06T04:54:42;100717.16;;;6.73;63.38
61205;BME280;47068;55.780;37.520;2023-04-06T04:57:08;100719.53;;;7.00;62.38
61205;BME280;47068;55.780;37.520;2023-04-06T04:59:34;100729.25;;;7.00;63.37
61205;BME280;47068;55.780;37.520;2023-04-06T05:02:00;100729.53;;;7.08;61.71
61205;BME280;47068;55.780;37.520;2023-04-06T05:04:25;100667.94;;;6.60;61.95
61205;BME280;47068;55.780;37.520;2023-04-06T05:07:02;100711.25;;;7.05;61.72
61205;BME280;47068;55.780;37.520;2023-04-06T05:09:29;100731.28;;;7.42;61.14
61205;BME280;47068;55.780;37.520;2023-04-06T05:11:55;100724.25;;;7.19;61.06
61205;BME280;47068;55.780;37.520;2023-04-06T05:14:21;100720.09;;;7.39;60.79
61205;BME280;47068;55.780;37.520;2023-04-06T05:16:46;100727.66;;;7.32;60.54
61205;BME280;47068;55.780;37.520;2023-04-06T05:19:12;100679.94;;;6.88;61.42
61205;BME280;47068;55.780;37.520;2023-04-06T05:21:38;100726.56;;;7.24;61.22
61205;BME280;47068;55.780;37.520;2023-04-06T05:24:04;100730.38;;;7.08;60.75
61205;BME280;47068;55.780;37.520;2023-04-06T05:26:29;100730.00;;;7.02;61.20
61205;BME280;47068;55.780;37.520;2023-04-06T05:28:55;100726.88;;;7.08;61.31
61205;BME280;47068;55.780;37.520;2023-04-06T05:31:21;100720.66;;;7.20;60.87
61205;BME280;47068;55.780;37.520;2023-04-06T05:33:46;100724.53;;;7.49;60.08
61205;BME280;47068;55.780;37.520;2023-04-06T05:36:12;100716.56;;;8.16;58.25
61205;BME280;47068;55.780;37.520;2023-04-06T05:38:37;100709.41;;;9.84;55.75
61205;BME280;47068;55.780;37.520;2023-04-06T05:41:03;100714.25;;;11.54;49.58
61205;BME280;47068;55.780;37.520;2023-04-06T05:43:28;100706.97;;;12.91;45.52
61205;BME280;47068;55.780;37.520;2023-04-06T05:45:54;100707.44;;;13.56;43.83
61205;BME280;47068;55.780;37.520;2023-04-06T05:48:20;100710.75;;;13.50;43.30
61205;BME280;47068;55.780;37.520;2023-04-06T05:50:49;100704.81;;;14.48;41.34
61205;BME280;47068;55.780;37.520;2023-04-06T05:53:18;100681.09;;;14.70;40.14
61205;BME280;47068;55.780;37.520;2023-04-06T05:55:46;100702.84;;;14.83;39.57
61205;BME280;47068;55.780;37.520;2023-04-06T05:58:12;100702.47;;;14.45;40.17
61205;BME280;47068;55.780;37.520;2023-04-06T06:00:38;100703.88;;;14.90;39.28
61205;BME280;47068;55.780;37.520;2023-04-06T06:03:06;100705.00;;;15.99;37.35
61205;BME280;47068;55.780;37.520;2023-04-06T06:05:34;100703.97;;;17.30;34.58
61205;BME280;47068;55.780;37.520;2023-04-06T06:07:59;100700.19;;;17.98;34.82
61205;BME280;47068;55.780;37.520;2023-04-06T06:10:27;100687.38;;;21.25;30.26
61205;BME280;47068;55.780;37.520;2023-04-06T06:12:53;100690.69;;;23.86;26.91
61205;BME280;47068;55.780;37.520;2023-04-06T06:15:21;100685.31;;;25.52;23.97
61205;BME280;47068;55.780;37.520;2023-04-06T06:17:47;100680.47;;;26.30;21.53
61205;BME280;47068;55.780;37.520;2023-04-06T06:20:12;100690.06;;;26.60;20.92
61205;BME280;47068;55.780;37.520;2023-04-06T06:22:38;100678.88;;;24.29;23.36
61205;BME280;47068;55.780;37.520;2023-04-06T06:25:05;100687.50;;;27.16;20.89
61205;BME280;47068;55.780;37.520;2023-04-06T06:27:31;100675.53;;;29.28;18.49
61205;BME280;47068;55.780;37.520;2023-04-06T06:29:56;100670.06;;;30.27;17.55
61205;BME280;47068;55.780;37.520;2023-04-06T06:32:22;100679.59;;;30.04;16.79
61205;BME280;47068;55.780;37.520;2023-04-06T06:34:47;100680.53;;;27.25;19.52
61205;BME280;47068;55.780;37.520;2023-04-06T06:37:13;100671.97;;;26.71;20.86
61205;BME280;47068;55.780;37.520;2023-04-06T06:39:38;100659.84;;;28.28;19.98
61205;BME280;47068;55.780;37.520;2023-04-06T06:42:04;100669.53;;;28.67;19.02
61205;BME280;47068;55.780;37.520;2023-04-06T06:44:30;100661.78;;;28.86;17.90
61205;BME280;47068;55.780;37.520;2023-04-06T06:46:55;100665.25;;;26.05;20.86
61205;BME280;47068;55.780;37.520;2023-04-06T06:49:21;100637.34;;;26.43;20.54
61205;BME280;47068;55.780;37.520;2023-04-06T06:51:46;100662.41;;;27.35;18.98
61205;BME280;47068;55.780;37.520;2023-04-06T06:54:12;100647.25;;;26.21;21.18
61205;BME280;47068;55.780;37.520;2023-04-06T06:56:38;100661.94;;;28.74;18.66
61205;BME280;47068;55.780;37.520;2023-04-06T06:59:05;100662.72;;;28.43;18.75
61205;BME280;47068;55.780;37.520;2023-04-06T07:01:32;100632.50;;;29.75;17.50
61205;BME280;47068;55.780;37.520;2023-04-06T07:03:59;100654.44;;;31.69;16.22
61205;BME280;47068;55.780;37.520;2023-04-06T07:06:24;100659.78;;;32.05;15.08
61205;BME280;47068;55.780;37.520;2023-04-06T07:08:50;100654.53;;;29.86;16.40
61205;BME280;47068;55.780;37.520;2023-04-06T07:11:18;100657.84;;;26.74;19.53
61205;BME280;47068;55.780;37.520;2023-04-06T07:13:43;100657.25;;;24.64;22.13
61205;BME280;47068;55.780;37.520;2023-04-06T07:16:09;100648.72;;;25.14;21.06
61205;BME280;47068;55.780;37.520;2023-04-06T07:18:35;100640.44;;;21.77;25.30
61205;BME280;47068;55.780;37.520;2023-04-06T07:21:00;100658.38;;;23.97;23.39
61205;BME280;47068;55.780;37.520;2023-04-06T07:23:26;100668.59;;;23.65;23.22
61205;BME280;47068;55.780;37.520;2023-04-06T07:25:51;100656.53;;;23.11;24.02
61205;BME280;47068;55.780;37.520;2023-04-06T07:28:21;100623.66;;;24.58;22.65
61205;BME280;47068;55.780;37.520;2023-04-06T07:30:47;100665.16;;;23.87;23.55
61205;BME280;47068;55.780;37.520;2023-04-06T07:33:12;100653.84;;;24.27;23.82
61205;BME280;47068;55.780;37.520;2023-04-06T07:35:41;100649.03;;;24.41;22.30
61205;BME280;47068;55.780;37.520;2023-04-06T07:38:06;100672.56;;;23.99;23.10
61205;BME280;47068;55.780;37.520;2023-04-06T07:40:39;100661.31;;;26.01;20.82
61205;BME280;47068;55.780;37.520;2023-04-06T07:43:05;100663.06;;;26.92;19.97
61205;BME280;47068;55.780;37.520;2023-04-06T07:45:30;100640.53;;;26.85;19.83
61205;BME280;47068;55.780;37.520;2023-04-06T07:47:57;100658.28;;;27.71;18.95
61205;BME280;47068;55.780;37.520;2023-04-06T07:50:23;100655.22;;;27.90;18.82
61205;BME280;47068;55.780;37.520;2023-04-06T07:52:48;100624.59;;;28.90;17.15
61205;BME280;47068;55.780;37.520;2023-04-06T07:55:19;100639.50;;;29.98;17.04
61205;BME280;47068;55.780;37.520;2023-04-06T07:57:45;100653.31;;;28.87;17.34
61205;BME280;47068;55.780;37.520;2023-04-06T08:00:11;100650.47;;;26.30;19.91
61205;BME280;47068;55.780;37.520;2023-04-06T08:02:37;100652.78;;;26.66;19.60
61205;BME280;47068;55.780;37.520;2023-04-06T08:05:02;100645.00;;;25.89;20.41
61205;BME280;47068;55.780;37.520;2023-04-06T08:07:28;100654.16;;;23.82;22.40
61205;BME280;47068;55.780;37.520;2023-04-06T08:09:53;100638.47;;;22.04;24.62
61205;BME280;47068;55.780;37.520;2023-04-06T08:12:19;100648.44;;;21.00;26.12
61205;BME280;47068;55.780;37.520;2023-04-06T08:14:45;100605.94;;;18.77;28.88
61205;BME280;47068;55.780;37.520;2023-04-06T08:17:11;100662.13;;;18.01;30.71
61205;BME280;47068;55.780;37.520;2023-04-06T08:19:36;100658.63;;;17.27;31.62
61205;BME280;47068;55.780;37.520;2023-04-06T08:22:02;100651.13;;;16.85;33.17
61205;BME280;47068;55.780;37.520;2023-04-06T08:24:28;100656.50;;;16.09;34.45
61205;BME280;47068;55.780;37.520;2023-04-06T08:26:53;100665.25;;;15.48;35.77
61205;BME280;47068;55.780;37.520;2023-04-06T08:29:19;100657.56;;;15.28;36.26
61205;BME280;47068;55.780;37.520;2023-04-06T08:31:44;100648.94;;;14.86;36.77
61205;BME280;47068;55.780;37.520;2023-04-06T08:34:10;100616.78;;;14.37;37.65
61205;BME280;47068;55.780;37.520;2023-04-06T08:36:36;100643.41;;;14.47;38.06
61205;BME280;47068;55.780;37.520;2023-04-06T08:39:01;100649.75;;;14.54;37.50
61205;BME280;47068;55.780;37.520;2023-04-06T08:41:27;100642.25;;;13.91;38.66
61205;BME280;47068;55.780;37.520;2023-04-06T08:43:56;100651.13;;;14.00;38.29
61205;BME280;47068;55.780;37.520;2023-04-06T08:46:23;100646.22;;;13.79;39.18
61205;BME280;47068;55.780;37.520;2023-04-06T08:48:55;100651.34;;;13.64;39.31
61205;BME280;47068;55.780;37.520;2023-04-06T08:51:23;100639.34;;;13.68;39.66
61205;BME280;47068;55.780;37.520;2023-04-06T08:53:52;100657.78;;;13.88;39.22
61205;BME280;47068;55.780;37.520;2023-04-06T08:56:22;100614.34;;;13.94;38.51
61205;BME280;47068;55.780;37.520;2023-04-06T08:58:48;100648.16;;;14.11;39.02
61205;BME280;47068;55.780;37.520;2023-04-06T09:01:14;100611.94;;;13.74;39.16
61205;BME280;47068;55.780;37.520;2023-04-06T09:03:44;100617.06;;;13.60;39.11
61205;BME280;47068;55.780;37.520;2023-04-06T09:06:11;100645.03;;;13.73;38.82
61205;BME280;47068;55.780;37.520;2023-04-06T09:08:39;100611.56;;;13.69;39.01
61205;BME280;47068;55.780;37.520;2023-04-06T09:11:05;100652.09;;;13.91;38.77
61205;BME280;47068;55.780;37.520;2023-04-06T09:13:32;100631.13;;;13.62;38.81
61205;BME280;47068;55.780;37.520;2023-04-06T09:16:09;100646.38;;;13.77;38.98
61205;BME280;47068;55.780;37.520;2023-04-06T09:18:34;100647.97;;;13.62;38.43
61205;BME280;47068;55.780;37.520;2023-04-06T09:21:02;100651.03;;;13.67;38.42
61205;BME280;47068;55.780;37.520;2023-04-06T09:23:27;100624.69;;;13.97;39.02
61205;BME280;47068;55.780;37.520;2023-04-06T09:26:14;100646.34;;;14.19;37.55
61205;BME280;47068;55.780;37.520;2023-04-06T09:28:43;100650.94;;;14.43;38.13
61205;BME280;47068;55.780;37.520;2023-04-06T09:31:11;100648.28;;;14.51;37.35
61205;BME280;47068;55.780;37.520;2023-04-06T09:33:41;100647.44;;;14.75;36.47
61205;BME280;47068;55.780;37.520;2023-04-06T09:36:07;100643.91;;;14.67;37.44
61205;BME280;47068;55.780;37.520;2023-04-06T09:38:37;100225.34;;;11.74;37.03
61205;BME280;47068;55.780;37.520;2023-04-06T09:41:03;100644.91;;;14.82;37.18
61205;BME280;47068;55.780;37.520;2023-04-06T09:43:29;100637.50;;;15.24;35.71
61205;BME280;47068;55.780;37.520;2023-04-06T09:45:56;100610.78;;;14.43;36.00
61205;BME280;47068;55.780;37.520;2023-04-06T09:48:24;100617.47;;;14.47;37.85
61205;BME280;47068;55.780;37.520;2023-04-06T09:50:53;100635.53;;;15.02;37.06
61205;BME280;47068;55.780;37.520;2023-04-06T09:53:26;100643.84;;;15.23;36.35
61205;BME280;47068;55.780;37.520;2023-04-06T09:55:56;100629.13;;;14.22;35.54
61205;BME280;47068;55.780;37.520;2023-04-06T09:58:23;100633.88;;;14.44;36.60
61205;BME280;47068;55.780;37.520;2023-04-06T10:01:08;100634.88;;;14.92;35.93
61205;BME280;47068;55.780;37.520;2023-04-06T10:04:01;100641.91;;;14.44;35.46
61205;BME280;47068;55.780;37.520;2023-04-06T10:06:31;100622.53;;;13.92;36.32
61205;BME280;47068;55.780;37.520;2023-04-06T10:09:04;100631.78;;;14.14;37.09
61205;BME280;47068;55.780;37.520;2023-04-06T10:11:30;100625.00;;;14.52;36.47
61205;BME280;47068;55.780;37.520;2023-04-06T10:13:56;100624.66;;;14.55;35.90
61205;BME280;47068;55.780;37.520;2023-04-06T10:16:22;100627.84;;;14.83;35.85
61205;BME280;47068;55.780;37.520;2023-04-06T10:18:56;100630.16;;;14.94;35.64
61205;BME280;47068;55.780;37.520;2023-04-06T10:21:25;100599.38;;;14.82;35.06
61205;BME280;47068;55.780;37.520;2023-04-06T10:23:58;100621.63;;;14.90;35.04
61205;BME280;47068;55.780;37.520;2023-04-06T10:26:26;100626.69;;;14.85;35.44
61205;BME280;47068;55.780;37.520;2023-04-06T10:28:52;100625.00;;;14.60;35.04
61205;BME280;47068;55.780;37.520;2023-04-06T10:31:25;100622.81;;;14.80;35.08
61205;BME280;47068;55.780;37.520;2023-04-06T10:34:00;100610.09;;;14.90;34.37
61205;BME280;47068;55.780;37.520;2023-04-06T10:36:31;100629.84;;;15.05;34.30
61205;BME280;47068;55.780;37.520;2023-04-06T10:39:05;100615.81;;;15.42;34.89
61205;BME280;47068;55.780;37.520;2023-04-06T10:41:50;100622.44;;;15.15;34.09
61205;BME280;47068;55.780;37.520;2023-04-06T10:44:23;100614.09;;;14.94;35.07
61205;BME280;47068;55.780;37.520;2023-04-06T10:46:56;100625.38;;;15.36;34.42
61205;BME280;47068;55.780;37.520;2023-04-06T10:49:24;100615.66;;;15.44;34.00
61205;BME280;47068;55.780;37.520;2023-04-06T10:51:56;100429.03;;;14.32;34.17
61205;BME280;47068;55.780;37.520;2023-04-06T10:54:24;100612.28;;;15.50;34.27
61205;BME280;47068;55.780;37.520;2023-04-06T10:56:50;100608.59;;;15.59;34.30
61205;BME280;47068;55.780;37.520;2023-04-06T10:59:22;100602.50;;;15.73;33.78
61205;BME280;47068;55.780;37.520;2023-04-06T11:01:49;100609.03;;;15.70;33.97
61205;BME280;47068;55.780;37.520;2023-04-06T11:04:17;100612.03;;;15.75;33.48
61205;BME280;47068;55.780;37.520;2023-04-06T11:06:47;100615.34;;;15.86;33.39
61205;BME280;47068;55.780;37.520;2023-04-06T11:09:23;100613.19;;;15.81;33.32
61205;BME280;47068;55.780;37.520;2023-04-06T11:11:50;100623.47;;;16.00;33.08
61205;BME280;47068;55.780;37.520;2023-04-06T11:14:15;100599.47;;;15.76;32.94
61205;BME280;47068;55.780;37.520;2023-04-06T11:16:41;100510.50;;;14.54;34.00
61205;BME280;47068;55.780;37.520;2023-04-06T11:19:07;100607.69;;;15.19;34.47
61205;BME280;47068;55.780;37.520;2023-04-06T11:21:47;100615.06;;;15.17;33.85
61205;BME280;47068;55.780;37.520;2023-04-06T11:26:47;100589.06;;;15.26;33.87
61205;BME280;47068;55.780;37.520;2023-04-06T11:29:30;100617.44;;;14.96;33.94
61205;BME280;47068;55.780;37.520;2023-04-06T11:32:05;100610.75;;;14.68;34.85
61205;BME280;47068;55.780;37.520;2023-04-06T11:34:39;100610.28;;;14.72;35.48
61205;BME280;47068;55.780;37.520;2023-04-06T11:37:10;100610.13;;;14.66;34.71
61205;BME280;47068;55.780;37.520;2023-04-06T11:39:46;100583.47;;;14.40;35.07
61205;BME280;47068;55.780;37.520;2023-04-06T11:42:20;100604.75;;;14.49;35.37
61205;BME280;47068;55.780;37.520;2023-04-06T11:44:46;100603.25;;;14.55;35.43
61205;BME280;47068;55.780;37.520;2023-04-06T11:47:12;100582.16;;;14.52;35.29
61205;BME280;47068;55.780;37.520;2023-04-06T11:49:42;100612.28;;;14.54;35.50
61205;BME280;47068;55.780;37.520;2023-04-06T11:52:19;100612.13;;;14.55;35.24
61205;BME280;47068;55.780;37.520;2023-04-06T11:54:46;100597.72;;;14.56;35.06
61205;BME280;47068;55.780;37.520;2023-04-06T11:57:12;100603.41;;;14.62;34.94
61205;BME280;47068;55.780;37.520;2023-04-06T11:59:37;100599.88;;;14.69;35.10
61205;BME280;47068;55.780;37.520;2023-04-06T12:02:03;100599.06;;;14.69;35.12
61205;BME280;47068;55.780;37.520;2023-04-06T12:04:29;100598.38;;;14.67;35.18
61205;BME280;47068;55.780;37.520;2023-04-06T12:06:55;100610.13;;;14.66;35.14
61205;BME280;47068;55.780;37.520;2023-04-06T12:09:21;100605.41;;;14.43;35.70
61205;BME280;47068;55.780;37.520;2023-04-06T12:11:46;100589.00;;;14.46;35.36
61205;BME280;47068;55.780;37.520;2023-04-06T12:14:12;100605.75;;;14.56;35.00
61205;BME280;47068;55.780;37.520;2023-04-06T12:16:38;100592.38;;;14.48;35.31
61205;BME280;47068;55.780;37.520;2023-04-06T12:19:04;100601.41;;;14.47;35.30
61205;BME280;47068;55.780;37.520;2023-04-06T12:21:31;100583.66;;;14.38;35.41
61205;BME280;47068;55.780;37.520;2023-04-06T12:23:58;100601.41;;;14.47;35.04
61205;BME280;47068;55.780;37.520;2023-04-06T12:26:23;100600.41;;;14.48;35.35
61205;BME280;47068;55.780;37.520;2023-04-06T12:28:49;100587.31;;;14.45;35.50
61205;BME280;47068;55.780;37.520;2023-04-06T12:31:21;100591.69;;;14.54;35.11
61205;BME280;47068;55.780;37.520;2023-04-06T12:33:49;100594.03;;;14.49;35.17
61205;BME280;47068;55.780;37.520;2023-04-06T12:36:17;100586.34;;;14.46;34.59
61205;BME280;47068;55.780;37.520;2023-04-06T12:38:49;100595.19;;;14.47;35.31
61205;BME280;47068;55.780;37.520;2023-04-06T12:41:16;100588.00;;;14.47;34.76
61205;BME280;47068;55.780;37.520;2023-04-06T12:43:42;100590.00;;;14.53;34.97
61205;BME280;47068;55.780;37.520;2023-04-06T12:46:08;100567.59;;;14.46;34.83